Natick, MA (01760)

5:00 AM EST on December 21, 2014 (GMT -0500)
KMANATIC6 | Change Station
CLOSE
Current Station
Personal Weather Station
Location: Natick, MA
Elevation: 243 ft
Nearby Weather Stations

Elev 243 ft 42.29 °N, 71.35 °W | Updated 5 minutes ago

Overcast
Overcast
29.7 °F
Feels Like 30 °F
N
1.0
Wind Variable Wind from NNE
Gusts 3.0 mph

Today
High -- | Low -- °F
--% Chance of Precip.
Yesterday
High -- | Low -- °F
Precip. -- in
7:11 AM 4:16 PM
Waning Crescent, 1% visible
Pressure 30.28 in
Visibility 2.5 miles
Clouds Overcast 500 ft
Windchill 30 °F
Dew Point 28 °F
Humidity 93%
Rainfall 0.00 in
Snow Depth Not available.
UV 0 out of 12
Pollen .10 out of 12
Air Quality Not available.
Flu Activity Not available.
METAR KOWD 210953Z AUTO 00000KT 2 1/2SM -SN BR OVC005 01/00 A3027 RMK AO2 CIG 004V010 SLP252 P0000 T00060000

More Conditions Fewer Conditions

Pressure 30.28 in
Visibility 2.5 miles
Clouds Overcast 500 ft
Windchill 30 °F
Dew Point 28 °F
Humidity 93%
Rainfall 0.00 in
Snow Depth Not available.
UV 0 out of 12
Pollen .10 out of 12
Air Quality Not available.
Flu Activity Not available.
METAR KOWD 210953Z AUTO 00000KT 2 1/2SM -SN BR OVC005 01/00 A3027 RMK AO2 CIG 004V010 SLP252 P0000 T00060000

More Conditions Fewer Conditions

10-Day Weather Forecast

Almanac

Astronomy

Dec. 21, 2014 Rise Set
Actual Time
Civil Twilight
Nautical Twilight
Astronomical Twilight
Moon
Length of Visible Light
Length of Day
Tomorrow will be .
, % of the Moon is Illuminated

Today's Extremes

State Highs State Lows

Community

WunderPhotos

Upload Photos

1,779,364 photos uploaded!

WunderBlogs® & News

Nearby

Air Quality

  Air Quality AQ Index Pollutant
Not available.

Snow Depth

Station Depth Elevation

Earthquake Activity

City Distance Mag. Time & Date
Minimum magnitude displayed is 2.5.

Coastal Water Temperatures

Place Temperature

Nearby Weather Stations